sensor_id;sensor_type;location;lat;lon;timestamp;P1;durP1;ratioP1;P2;durP2;ratioP2
42854;SDS011;29183;48.038;14.346;2023-04-03T00:03:18;7.10;;;4.93;;
42854;SDS011;29183;48.038;14.346;2023-04-03T00:05:48;8.10;;;4.57;;
42854;SDS011;29183;48.038;14.346;2023-04-03T00:08:26;7.70;;;5.28;;
42854;SDS011;29183;48.038;14.346;2023-04-03T00:11:03;7.93;;;5.22;;
42854;SDS011;29183;48.038;14.346;2023-04-03T00:16:42;8.68;;;5.32;;
42854;SDS011;29183;48.038;14.346;2023-04-03T00:19:17;8.13;;;5.35;;
42854;SDS011;29183;48.038;14.346;2023-04-03T00:29:49;8.13;;;5.15;;
42854;SDS011;29183;48.038;14.346;2023-04-03T00:32:21;7.53;;;4.93;;
42854;SDS011;29183;48.038;14.346;2023-04-03T00:46:12;8.20;;;5.18;;
42854;SDS011;29183;48.038;14.346;2023-04-03T00:48:48;10.82;;;5.53;;
42854;SDS011;29183;48.038;14.346;2023-04-03T00:51:22;8.13;;;5.22;;
42854;SDS011;29183;48.038;14.346;2023-04-03T00:54:09;9.65;;;5.57;;
42854;SDS011;29183;48.038;14.346;2023-04-03T00:56:50;7.07;;;5.47;;
42854;SDS011;29183;48.038;14.346;2023-04-03T00:59:44;7.70;;;4.97;;
42854;SDS011;29183;48.038;14.346;2023-04-03T01:02:08;7.78;;;5.60;;
42854;SDS011;29183;48.038;14.346;2023-04-03T01:04:43;8.30;;;5.50;;
42854;SDS011;29183;48.038;14.346;2023-04-03T01:09:43;11.13;;;6.10;;
42854;SDS011;29183;48.038;14.346;2023-04-03T01:12:28;8.63;;;5.43;;
42854;SDS011;29183;48.038;14.346;2023-04-03T01:15:19;10.13;;;5.78;;
42854;SDS011;29183;48.038;14.346;2023-04-03T01:20:45;9.65;;;6.13;;
42854;SDS011;29183;48.038;14.346;2023-04-03T01:23:32;12.02;;;5.85;;
42854;SDS011;29183;48.038;14.346;2023-04-03T01:26:10;9.15;;;6.10;;
42854;SDS011;29183;48.038;14.346;2023-04-03T01:28:45;10.23;;;5.95;;
42854;SDS011;29183;48.038;14.346;2023-04-03T01:36:27;10.15;;;5.68;;
42854;SDS011;29183;48.038;14.346;2023-04-03T01:38:57;10.05;;;5.40;;
42854;SDS011;29183;48.038;14.346;2023-04-03T01:41:28;8.30;;;4.95;;
42854;SDS011;29183;48.038;14.346;2023-04-03T01:44:01;8.38;;;4.53;;
42854;SDS011;29183;48.038;14.346;2023-04-03T01:46:29;6.38;;;4.70;;
42854;SDS011;29183;48.038;14.346;2023-04-03T01:48:59;8.55;;;5.43;;
42854;SDS011;29183;48.038;14.346;2023-04-03T01:51:28;8.60;;;5.53;;
42854;SDS011;29183;48.038;14.346;2023-04-03T01:59:33;9.20;;;5.75;;
42854;SDS011;29183;48.038;14.346;2023-04-03T02:02:03;9.73;;;6.25;;
42854;SDS011;29183;48.038;14.346;2023-04-03T02:04:38;8.95;;;5.43;;
42854;SDS011;29183;48.038;14.346;2023-04-03T02:07:07;8.90;;;5.20;;
42854;SDS011;29183;48.038;14.346;2023-04-03T02:09:46;7.85;;;5.28;;
42854;SDS011;29183;48.038;14.346;2023-04-03T02:12:15;10.00;;;4.63;;
42854;SDS011;29183;48.038;14.346;2023-04-03T02:14:50;6.90;;;4.68;;
42854;SDS011;29183;48.038;14.346;2023-04-03T02:17:19;6.65;;;4.57;;
42854;SDS011;29183;48.038;14.346;2023-04-03T02:20:01;6.97;;;4.40;;
42854;SDS011;29183;48.038;14.346;2023-04-03T02:22:34;5.70;;;4.00;;
42854;SDS011;29183;48.038;14.346;2023-04-03T02:27:41;5.65;;;3.70;;
42854;SDS011;29183;48.038;14.346;2023-04-03T02:30:11;5.40;;;3.70;;
42854;SDS011;29183;48.038;14.346;2023-04-03T02:35:10;5.15;;;4.13;;
42854;SDS011;29183;48.038;14.346;2023-04-03T02:37:40;5.75;;;4.32;;
42854;SDS011;29183;48.038;14.346;2023-04-03T02:40:10;7.20;;;4.57;;
42854;SDS011;29183;48.038;14.346;2023-04-03T02:42:41;7.45;;;3.95;;
42854;SDS011;29183;48.038;14.346;2023-04-03T02:45:11;5.93;;;4.10;;
42854;SDS011;29183;48.038;14.346;2023-04-03T02:47:41;6.55;;;4.00;;
42854;SDS011;29183;48.038;14.346;2023-04-03T02:50:10;7.35;;;3.90;;
42854;SDS011;29183;48.038;14.346;2023-04-03T02:52:38;5.70;;;4.20;;
42854;SDS011;29183;48.038;14.346;2023-04-03T02:55:18;6.78;;;3.80;;
42854;SDS011;29183;48.038;14.346;2023-04-03T02:57:47;7.10;;;4.45;;
42854;SDS011;29183;48.038;14.346;2023-04-03T03:00:27;9.63;;;4.45;;
42854;SDS011;29183;48.038;14.346;2023-04-03T03:03:05;5.93;;;4.25;;
42854;SDS011;29183;48.038;14.346;2023-04-03T03:05:40;6.38;;;4.10;;
42854;SDS011;29183;48.038;14.346;2023-04-03T03:11:08;6.15;;;4.25;;
42854;SDS011;29183;48.038;14.346;2023-04-03T03:16:08;5.32;;;3.72;;
42854;SDS011;29183;48.038;14.346;2023-04-03T03:18:37;6.35;;;4.15;;
42854;SDS011;29183;48.038;14.346;2023-04-03T03:21:05;6.15;;;3.80;;
42854;SDS011;29183;48.038;14.346;2023-04-03T03:23:33;6.55;;;4.18;;
42854;SDS011;29183;48.038;14.346;2023-04-03T03:26:07;6.97;;;4.80;;
42854;SDS011;29183;48.038;14.346;2023-04-03T03:31:16;8.73;;;4.80;;
42854;SDS011;29183;48.038;14.346;2023-04-03T03:33:44;7.82;;;5.05;;
42854;SDS011;29183;48.038;14.346;2023-04-03T03:36:15;18.20;;;8.43;;
42854;SDS011;29183;48.038;14.346;2023-04-03T03:38:45;8.70;;;5.17;;
42854;SDS011;29183;48.038;14.346;2023-04-03T03:41:26;8.38;;;4.68;;
42854;SDS011;29183;48.038;14.346;2023-04-03T03:43:55;8.02;;;4.82;;
42854;SDS011;29183;48.038;14.346;2023-04-03T03:46:30;6.45;;;4.32;;
42854;SDS011;29183;48.038;14.346;2023-04-03T03:48:59;7.85;;;4.93;;
42854;SDS011;29183;48.038;14.346;2023-04-03T03:51:29;8.68;;;5.43;;
42854;SDS011;29183;48.038;14.346;2023-04-03T03:53:57;9.65;;;4.88;;
42854;SDS011;29183;48.038;14.346;2023-04-03T03:56:41;7.78;;;5.43;;
42854;SDS011;29183;48.038;14.346;2023-04-03T03:59:11;8.02;;;4.82;;
42854;SDS011;29183;48.038;14.346;2023-04-03T04:01:45;6.25;;;4.50;;
42854;SDS011;29183;48.038;14.346;2023-04-03T04:04:20;7.15;;;4.47;;
42854;SDS011;29183;48.038;14.346;2023-04-03T04:06:55;6.30;;;4.50;;
42854;SDS011;29183;48.038;14.346;2023-04-03T04:09:26;6.72;;;4.57;;
42854;SDS011;29183;48.038;14.346;2023-04-03T04:11:55;5.97;;;4.73;;
42854;SDS011;29183;48.038;14.346;2023-04-03T04:14:39;6.50;;;4.63;;
42854;SDS011;29183;48.038;14.346;2023-04-03T04:17:09;8.93;;;5.60;;
42854;SDS011;29183;48.038;14.346;2023-04-03T04:19:40;12.40;;;7.10;;
42854;SDS011;29183;48.038;14.346;2023-04-03T04:22:25;12.30;;;7.25;;
42854;SDS011;29183;48.038;14.346;2023-04-03T04:24:58;13.23;;;6.90;;
42854;SDS011;29183;48.038;14.346;2023-04-03T04:27:41;11.93;;;7.88;;
42854;SDS011;29183;48.038;14.346;2023-04-03T04:30:11;12.73;;;7.53;;
42854;SDS011;29183;48.038;14.346;2023-04-03T04:32:40;12.10;;;6.90;;
42854;SDS011;29183;48.038;14.346;2023-04-03T04:35:09;10.48;;;7.15;;
42854;SDS011;29183;48.038;14.346;2023-04-03T04:46:51;12.48;;;6.93;;
42854;SDS011;29183;48.038;14.346;2023-04-03T04:49:32;9.45;;;6.63;;
42854;SDS011;29183;48.038;14.346;2023-04-03T04:52:17;11.63;;;6.20;;
42854;SDS011;29183;48.038;14.346;2023-04-03T04:57:36;9.48;;;5.75;;
42854;SDS011;29183;48.038;14.346;2023-04-03T05:00:24;11.88;;;6.32;;
42854;SDS011;29183;48.038;14.346;2023-04-03T05:11:25;10.05;;;7.13;;
42854;SDS011;29183;48.038;14.346;2023-04-03T05:13:53;8.88;;;5.90;;
42854;SDS011;29183;48.038;14.346;2023-04-03T05:19:00;8.73;;;6.20;;
42854;SDS011;29183;48.038;14.346;2023-04-03T05:21:29;11.60;;;7.00;;
42854;SDS011;29183;48.038;14.346;2023-04-03T05:24:16;13.93;;;6.30;;
42854;SDS011;29183;48.038;14.346;2023-04-03T05:26:56;12.80;;;6.95;;
42854;SDS011;29183;48.038;14.346;2023-04-03T05:32:15;10.45;;;6.38;;
42854;SDS011;29183;48.038;14.346;2023-04-03T05:37:22;12.52;;;6.53;;
42854;SDS011;29183;48.038;14.346;2023-04-03T05:39:51;12.00;;;6.60;;
42854;SDS011;29183;48.038;14.346;2023-04-03T05:45:22;11.38;;;6.93;;
42854;SDS011;29183;48.038;14.346;2023-04-03T05:47:57;11.15;;;5.93;;
42854;SDS011;29183;48.038;14.346;2023-04-03T05:53:43;8.57;;;5.75;;
42854;SDS011;29183;48.038;14.346;2023-04-03T05:56:04;9.02;;;6.57;;
42854;SDS011;29183;48.038;14.346;2023-04-03T05:58:34;9.82;;;6.07;;
42854;SDS011;29183;48.038;14.346;2023-04-03T06:01:08;10.00;;;6.57;;
42854;SDS011;29183;48.038;14.346;2023-04-03T06:03:37;10.68;;;6.50;;
42854;SDS011;29183;48.038;14.346;2023-04-03T06:06:26;8.02;;;5.90;;
42854;SDS011;29183;48.038;14.346;2023-04-03T06:08:54;8.35;;;5.75;;
42854;SDS011;29183;48.038;14.346;2023-04-03T06:13:54;8.68;;;5.95;;
42854;SDS011;29183;48.038;14.346;2023-04-03T06:16:25;10.75;;;5.80;;
42854;SDS011;29183;48.038;14.346;2023-04-03T06:21:55;7.47;;;5.40;;
42854;SDS011;29183;48.038;14.346;2023-04-03T06:24:40;8.73;;;6.22;;
42854;SDS011;29183;48.038;14.346;2023-04-03T06:27:08;11.90;;;6.45;;
42854;SDS011;29183;48.038;14.346;2023-04-03T06:29:38;6.70;;;5.13;;
42854;SDS011;29183;48.038;14.346;2023-04-03T06:35:16;10.10;;;6.18;;
42854;SDS011;29183;48.038;14.346;2023-04-03T06:37:48;7.47;;;5.60;;
42854;SDS011;29183;48.038;14.346;2023-04-03T06:40:18;8.70;;;5.45;;
42854;SDS011;29183;48.038;14.346;2023-04-03T06:42:49;9.82;;;5.72;;
42854;SDS011;29183;48.038;14.346;2023-04-03T06:45:18;7.20;;;4.63;;
42854;SDS011;29183;48.038;14.346;2023-04-03T06:47:54;9.25;;;6.07;;
42854;SDS011;29183;48.038;14.346;2023-04-03T06:53:12;7.53;;;5.05;;
42854;SDS011;29183;48.038;14.346;2023-04-03T06:55:41;7.30;;;5.00;;
42854;SDS011;29183;48.038;14.346;2023-04-03T06:58:10;9.43;;;5.90;;
42854;SDS011;29183;48.038;14.346;2023-04-03T07:03:31;7.70;;;5.10;;
42854;SDS011;29183;48.038;14.346;2023-04-03T07:08:49;7.75;;;5.10;;
42854;SDS011;29183;48.038;14.346;2023-04-03T07:11:20;9.90;;;5.10;;
42854;SDS011;29183;48.038;14.346;2023-04-03T07:16:30;7.88;;;5.00;;
42854;SDS011;29183;48.038;14.346;2023-04-03T07:22:11;6.05;;;3.97;;
42854;SDS011;29183;48.038;14.346;2023-04-03T07:27:29;8.60;;;5.07;;
42854;SDS011;29183;48.038;14.346;2023-04-03T07:30:00;5.82;;;4.07;;
42854;SDS011;29183;48.038;14.346;2023-04-03T07:32:30;5.60;;;4.40;;
42854;SDS011;29183;48.038;14.346;2023-04-03T07:34:59;9.07;;;4.97;;
42854;SDS011;29183;48.038;14.346;2023-04-03T07:37:40;7.33;;;4.90;;
42854;SDS011;29183;48.038;14.346;2023-04-03T07:40:10;7.30;;;5.43;;
42854;SDS011;29183;48.038;14.346;2023-04-03T07:45:17;10.93;;;6.07;;
42854;SDS011;29183;48.038;14.346;2023-04-03T07:47:52;12.13;;;6.88;;
42854;SDS011;29183;48.038;14.346;2023-04-03T07:50:36;9.80;;;6.25;;
42854;SDS011;29183;48.038;14.346;2023-04-03T07:53:04;11.05;;;7.40;;
42854;SDS011;29183;48.038;14.346;2023-04-03T07:55:34;10.80;;;6.43;;
42854;SDS011;29183;48.038;14.346;2023-04-03T07:58:05;11.45;;;6.97;;
42854;SDS011;29183;48.038;14.346;2023-04-03T08:00:34;9.93;;;6.55;;
42854;SDS011;29183;48.038;14.346;2023-04-03T08:08:47;8.65;;;6.22;;
42854;SDS011;29183;48.038;14.346;2023-04-03T08:13:58;9.43;;;4.70;;
42854;SDS011;29183;48.038;14.346;2023-04-03T08:16:29;5.25;;;3.20;;
42854;SDS011;29183;48.038;14.346;2023-04-03T08:19:09;4.35;;;3.15;;
42854;SDS011;29183;48.038;14.346;2023-04-03T08:24:32;8.73;;;4.85;;
42854;SDS011;29183;48.038;14.346;2023-04-03T08:27:01;19.15;;;9.50;;
42854;SDS011;29183;48.038;14.346;2023-04-03T08:32:35;8.73;;;5.90;;
42854;SDS011;29183;48.038;14.346;2023-04-03T08:35:03;8.07;;;5.55;;
42854;SDS011;29183;48.038;14.346;2023-04-03T08:37:43;6.57;;;5.10;;
42854;SDS011;29183;48.038;14.346;2023-04-03T08:40:16;10.27;;;5.70;;
42854;SDS011;29183;48.038;14.346;2023-04-03T08:43:04;10.27;;;6.55;;
42854;SDS011;29183;48.038;14.346;2023-04-03T08:45:55;17.90;;;7.90;;
42854;SDS011;29183;48.038;14.346;2023-04-03T08:48:31;12.40;;;6.75;;
42854;SDS011;29183;48.038;14.346;2023-04-03T08:51:14;11.23;;;5.88;;
42854;SDS011;29183;48.038;14.346;2023-04-03T08:56:31;9.23;;;5.93;;
42854;SDS011;29183;48.038;14.346;2023-04-03T08:59:09;8.90;;;4.95;;
42854;SDS011;29183;48.038;14.346;2023-04-03T09:01:40;9.35;;;4.70;;
42854;SDS011;29183;48.038;14.346;2023-04-03T09:04:18;8.40;;;5.05;;
42854;SDS011;29183;48.038;14.346;2023-04-03T09:09:37;5.43;;;2.72;;
42854;SDS011;29183;48.038;14.346;2023-04-03T09:12:24;6.82;;;4.00;;
42854;SDS011;29183;48.038;14.346;2023-04-03T09:18:15;4.05;;;2.55;;
42854;SDS011;29183;48.038;14.346;2023-04-03T09:23:52;5.13;;;2.38;;
42854;SDS011;29183;48.038;14.346;2023-04-03T09:32:02;5.65;;;3.00;;
42854;SDS011;29183;48.038;14.346;2023-04-03T09:37:52;7.10;;;3.42;;
42854;SDS011;29183;48.038;14.346;2023-04-03T09:40:29;5.38;;;3.60;;
42854;SDS011;29183;48.038;14.346;2023-04-03T09:43:18;5.30;;;3.85;;
42854;SDS011;29183;48.038;14.346;2023-04-03T09:54:47;3.25;;;2.60;;
42854;SDS011;29183;48.038;14.346;2023-04-03T09:57:21;3.25;;;2.63;;
42854;SDS011;29183;48.038;14.346;2023-04-03T10:00:00;4.20;;;2.97;;
42854;SDS011;29183;48.038;14.346;2023-04-03T10:02:41;3.55;;;2.85;;
42854;SDS011;29183;48.038;14.346;2023-04-03T10:11:06;5.13;;;3.03;;
42854;SDS011;29183;48.038;14.346;2023-04-03T10:16:41;3.22;;;2.90;;
42854;SDS011;29183;48.038;14.346;2023-04-03T10:21:59;3.55;;;2.28;;
42854;SDS011;29183;48.038;14.346;2023-04-03T10:27:53;3.58;;;2.60;;
42854;SDS011;29183;48.038;14.346;2023-04-03T10:53:58;5.05;;;2.80;;
42854;SDS011;29183;48.038;14.346;2023-04-03T10:56:48;4.90;;;2.78;;
42854;SDS011;29183;48.038;14.346;2023-04-03T10:59:50;4.93;;;3.20;;
42854;SDS011;29183;48.038;14.346;2023-04-03T11:07:42;6.72;;;3.00;;
42854;SDS011;29183;48.038;14.346;2023-04-03T11:10:15;8.82;;;3.30;;
42854;SDS011;29183;48.038;14.346;2023-04-03T11:16:05;9.23;;;3.45;;
42854;SDS011;29183;48.038;14.346;2023-04-03T11:24:05;3.40;;;2.80;;
42854;SDS011;29183;48.038;14.346;2023-04-03T11:26:53;4.68;;;3.10;;
42854;SDS011;29183;48.038;14.346;2023-04-03T11:35:04;5.38;;;3.58;;
42854;SDS011;29183;48.038;14.346;2023-04-03T11:37:39;5.65;;;3.00;;
42854;SDS011;29183;48.038;14.346;2023-04-03T11:40:29;4.68;;;3.10;;
42854;SDS011;29183;48.038;14.346;2023-04-03T11:48:49;4.15;;;3.10;;
42854;SDS011;29183;48.038;14.346;2023-04-03T12:03:33;5.38;;;3.85;;
42854;SDS011;29183;48.038;14.346;2023-04-03T12:12:01;4.47;;;3.47;;
42854;SDS011;29183;48.038;14.346;2023-04-03T12:15:11;7.80;;;3.20;;
42854;SDS011;29183;48.038;14.346;2023-04-03T12:20:52;6.05;;;3.55;;
42854;SDS011;29183;48.038;14.346;2023-04-03T12:29:27;6.65;;;3.92;;
42854;SDS011;29183;48.038;14.346;2023-04-03T12:52:35;8.43;;;3.55;;
42854;SDS011;29183;48.038;14.346;2023-04-03T12:55:20;5.38;;;3.47;;
42854;SDS011;29183;48.038;14.346;2023-04-03T12:57:48;9.88;;;4.35;;
42854;SDS011;29183;48.038;14.346;2023-04-03T13:00:50;4.60;;;3.40;;
42854;SDS011;29183;48.038;14.346;2023-04-03T13:03:21;5.03;;;3.30;;
42854;SDS011;29183;48.038;14.346;2023-04-03T13:11:44;5.07;;;3.47;;
42854;SDS011;29183;48.038;14.346;2023-04-03T13:14:30;4.60;;;3.55;;
42854;SDS011;29183;48.038;14.346;2023-04-03T13:19:47;4.03;;;3.17;;
42854;SDS011;29183;48.038;14.346;2023-04-03T13:22:37;6.88;;;3.40;;
42854;SDS011;29183;48.038;14.346;2023-04-03T13:25:13;4.72;;;3.47;;
42854;SDS011;29183;48.038;14.346;2023-04-03T13:27:59;6.03;;;3.22;;
42854;SDS011;29183;48.038;14.346;2023-04-03T13:36:16;4.45;;;3.70;;
42854;SDS011;29183;48.038;14.346;2023-04-03T13:38:46;5.28;;;3.47;;
42854;SDS011;29183;48.038;14.346;2023-04-03T13:41:29;4.18;;;3.67;;
42854;SDS011;29183;48.038;14.346;2023-04-03T13:58:20;7.20;;;4.05;;
42854;SDS011;29183;48.038;14.346;2023-04-03T14:04:14;5.13;;;3.72;;
42854;SDS011;29183;48.038;14.346;2023-04-03T14:06:45;4.95;;;3.72;;
42854;SDS011;29183;48.038;14.346;2023-04-03T14:12:20;4.80;;;3.88;;
42854;SDS011;29183;48.038;14.346;2023-04-03T14:15:03;3.83;;;3.40;;
42854;SDS011;29183;48.038;14.346;2023-04-03T14:17:35;5.30;;;4.38;;
42854;SDS011;29183;48.038;14.346;2023-04-03T14:23:20;5.90;;;3.80;;
42854;SDS011;29183;48.038;14.346;2023-04-03T14:26:08;5.63;;;3.97;;
42854;SDS011;29183;48.038;14.346;2023-04-03T14:31:18;4.18;;;3.63;;
42854;SDS011;29183;48.038;14.346;2023-04-03T14:36:23;5.45;;;3.47;;
42854;SDS011;29183;48.038;14.346;2023-04-03T14:44:43;10.00;;;5.95;;
42854;SDS011;29183;48.038;14.346;2023-04-03T14:47:25;5.07;;;3.70;;
42854;SDS011;29183;48.038;14.346;2023-04-03T14:49:59;7.30;;;4.05;;
42854;SDS011;29183;48.038;14.346;2023-04-03T14:55:06;5.65;;;3.50;;
42854;SDS011;29183;48.038;14.346;2023-04-03T14:57:48;4.88;;;4.07;;
42854;SDS011;29183;48.038;14.346;2023-04-03T15:05:44;7.72;;;3.58;;
42854;SDS011;29183;48.038;14.346;2023-04-03T15:11:03;4.75;;;3.65;;
42854;SDS011;29183;48.038;14.346;2023-04-03T15:13:32;7.90;;;5.00;;
42854;SDS011;29183;48.038;14.346;2023-04-03T15:16:06;4.40;;;3.45;;
42854;SDS011;29183;48.038;14.346;2023-04-03T15:18:39;3.88;;;3.25;;
42854;SDS011;29183;48.038;14.346;2023-04-03T15:21:23;6.30;;;3.92;;
42854;SDS011;29183;48.038;14.346;2023-04-03T15:26:48;6.82;;;3.85;;
42854;SDS011;29183;48.038;14.346;2023-04-03T15:29:18;5.75;;;3.70;;
42854;SDS011;29183;48.038;14.346;2023-04-03T15:31:56;5.55;;;3.78;;
42854;SDS011;29183;48.038;14.346;2023-04-03T15:34:36;5.65;;;3.90;;
42854;SDS011;29183;48.038;14.346;2023-04-03T15:37:11;5.00;;;3.75;;
42854;SDS011;29183;48.038;14.346;2023-04-03T15:39:41;5.00;;;3.63;;
42854;SDS011;29183;48.038;14.346;2023-04-03T15:42:28;4.05;;;3.65;;
42854;SDS011;29183;48.038;14.346;2023-04-03T15:45:14;9.23;;;4.03;;
42854;SDS011;29183;48.038;14.346;2023-04-03T15:50:46;4.80;;;4.07;;
42854;SDS011;29183;48.038;14.346;2023-04-03T15:53:31;11.10;;;4.28;;
42854;SDS011;29183;48.038;14.346;2023-04-03T15:56:09;5.32;;;3.60;;
42854;SDS011;29183;48.038;14.346;2023-04-03T15:58:48;9.10;;;4.53;;
42854;SDS011;29183;48.038;14.346;2023-04-03T16:01:18;6.70;;;4.13;;
42854;SDS011;29183;48.038;14.346;2023-04-03T16:06:30;4.47;;;3.78;;
42854;SDS011;29183;48.038;14.346;2023-04-03T16:09:10;5.35;;;3.60;;
42854;SDS011;29183;48.038;14.346;2023-04-03T16:16:47;5.70;;;3.50;;
42854;SDS011;29183;48.038;14.346;2023-04-03T16:19:16;4.78;;;3.05;;
42854;SDS011;29183;48.038;14.346;2023-04-03T16:24:33;8.25;;;4.82;;
42854;SDS011;29183;48.038;14.346;2023-04-03T16:27:09;5.05;;;3.58;;
42854;SDS011;29183;48.038;14.346;2023-04-03T16:29:47;5.97;;;4.05;;
42854;SDS011;29183;48.038;14.346;2023-04-03T16:32:24;7.43;;;3.30;;
42854;SDS011;29183;48.038;14.346;2023-04-03T16:37:45;4.63;;;3.10;;
42854;SDS011;29183;48.038;14.346;2023-04-03T16:40:14;5.82;;;3.83;;
42854;SDS011;29183;48.038;14.346;2023-04-03T16:45:32;5.07;;;3.70;;
42854;SDS011;29183;48.038;14.346;2023-04-03T16:48:02;5.10;;;3.58;;
42854;SDS011;29183;48.038;14.346;2023-04-03T16:50:31;10.40;;;6.32;;
42854;SDS011;29183;48.038;14.346;2023-04-03T16:55:45;5.78;;;4.30;;
42854;SDS011;29183;48.038;14.346;2023-04-03T16:58:17;7.20;;;4.32;;
42854;SDS011;29183;48.038;14.346;2023-04-03T17:00:50;7.60;;;4.43;;
42854;SDS011;29183;48.038;14.346;2023-04-03T17:03:20;5.82;;;4.45;;
42854;SDS011;29183;48.038;14.346;2023-04-03T17:05:50;8.68;;;4.32;;
42854;SDS011;29183;48.038;14.346;2023-04-03T17:08:20;6.00;;;4.03;;
42854;SDS011;29183;48.038;14.346;2023-04-03T17:18:46;8.63;;;3.92;;
42854;SDS011;29183;48.038;14.346;2023-04-03T17:21:17;6.93;;;3.75;;
42854;SDS011;29183;48.038;14.346;2023-04-03T17:23:48;6.53;;;3.42;;
42854;SDS011;29183;48.038;14.346;2023-04-03T17:26:16;8.25;;;3.90;;
42854;SDS011;29183;48.038;14.346;2023-04-03T17:28:45;5.82;;;3.90;;
42854;SDS011;29183;48.038;14.346;2023-04-03T17:31:14;5.75;;;3.78;;
42854;SDS011;29183;48.038;14.346;2023-04-03T17:33:43;5.93;;;3.65;;
42854;SDS011;29183;48.038;14.346;2023-04-03T17:36:11;4.97;;;3.47;;
42854;SDS011;29183;48.038;14.346;2023-04-03T17:41:59;5.20;;;3.40;;
42854;SDS011;29183;48.038;14.346;2023-04-03T17:44:46;5.90;;;4.20;;
42854;SDS011;29183;48.038;14.346;2023-04-03T17:47:20;5.53;;;3.67;;
42854;SDS011;29183;48.038;14.346;2023-04-03T17:52:31;8.10;;;3.65;;
42854;SDS011;29183;48.038;14.346;2023-04-03T17:57:31;5.85;;;3.78;;
42854;SDS011;29183;48.038;14.346;2023-04-03T18:03:00;7.88;;;3.83;;
42854;SDS011;29183;48.038;14.346;2023-04-03T18:05:29;13.32;;;6.03;;
42854;SDS011;29183;48.038;14.346;2023-04-03T18:07:59;7.63;;;4.10;;
42854;SDS011;29183;48.038;14.346;2023-04-03T18:10:31;7.85;;;3.95;;
42854;SDS011;29183;48.038;14.346;2023-04-03T18:15:59;6.78;;;3.78;;
42854;SDS011;29183;48.038;14.346;2023-04-03T18:23:51;8.77;;;3.78;;
42854;SDS011;29183;48.038;14.346;2023-04-03T18:43:08;7.80;;;3.70;;
42854;SDS011;29183;48.038;14.346;2023-04-03T18:48:23;8.25;;;3.47;;
42854;SDS011;29183;48.038;14.346;2023-04-03T18:51:01;6.97;;;4.10;;
42854;SDS011;29183;48.038;14.346;2023-04-03T18:53:29;5.82;;;3.17;;
42854;SDS011;29183;48.038;14.346;2023-04-03T18:55:58;5.13;;;3.10;;
42854;SDS011;29183;48.038;14.346;2023-04-03T19:01:15;4.53;;;2.97;;
42854;SDS011;29183;48.038;14.346;2023-04-03T19:06:31;4.43;;;2.78;;
42854;SDS011;29183;48.038;14.346;2023-04-03T19:09:17;3.85;;;2.80;;
42854;SDS011;29183;48.038;14.346;2023-04-03T19:17:30;5.88;;;2.95;;
42854;SDS011;29183;48.038;14.346;2023-04-03T19:25:46;7.85;;;2.80;;
42854;SDS011;29183;48.038;14.346;2023-04-03T19:28:14;4.75;;;2.78;;
42854;SDS011;29183;48.038;14.346;2023-04-03T19:30:42;3.83;;;2.90;;
42854;SDS011;29183;48.038;14.346;2023-04-03T19:33:25;7.18;;;3.05;;
42854;SDS011;29183;48.038;14.346;2023-04-03T19:35:54;5.13;;;2.85;;
42854;SDS011;29183;48.038;14.346;2023-04-03T19:38:35;5.57;;;3.08;;
42854;SDS011;29183;48.038;14.346;2023-04-03T19:43:36;4.65;;;2.85;;
42854;SDS011;29183;48.038;14.346;2023-04-03T19:46:07;3.40;;;2.53;;
42854;SDS011;29183;48.038;14.346;2023-04-03T19:48:42;6.50;;;2.42;;
42854;SDS011;29183;48.038;14.346;2023-04-03T19:51:12;3.72;;;2.45;;
42854;SDS011;29183;48.038;14.346;2023-04-03T19:53:40;3.92;;;2.53;;
42854;SDS011;29183;48.038;14.346;2023-04-03T19:56:09;4.30;;;2.88;;
42854;SDS011;29183;48.038;14.346;2023-04-03T19:58:41;4.75;;;2.50;;
42854;SDS011;29183;48.038;14.346;2023-04-03T20:03:44;3.63;;;2.60;;
42854;SDS011;29183;48.038;14.346;2023-04-03T20:06:23;4.07;;;2.50;;
42854;SDS011;29183;48.038;14.346;2023-04-03T20:08:58;4.70;;;2.60;;
42854;SDS011;29183;48.038;14.346;2023-04-03T20:11:32;5.03;;;2.70;;
42854;SDS011;29183;48.038;14.346;2023-04-03T20:14:02;4.55;;;2.72;;
42854;SDS011;29183;48.038;14.346;2023-04-03T20:19:21;8.02;;;3.00;;
42854;SDS011;29183;48.038;14.346;2023-04-03T20:21:54;3.78;;;2.58;;
42854;SDS011;29183;48.038;14.346;2023-04-03T20:38:11;4.88;;;3.05;;
42854;SDS011;29183;48.038;14.346;2023-04-03T20:40:40;7.05;;;2.85;;
42854;SDS011;29183;48.038;14.346;2023-04-03T20:43:27;7.32;;;3.05;;
42854;SDS011;29183;48.038;14.346;2023-04-03T20:45:59;5.03;;;3.53;;
42854;SDS011;29183;48.038;14.346;2023-04-03T20:48:28;6.18;;;3.50;;
42854;SDS011;29183;48.038;14.346;2023-04-03T20:51:08;3.47;;;2.70;;
42854;SDS011;29183;48.038;14.346;2023-04-03T20:53:37;4.25;;;2.60;;
42854;SDS011;29183;48.038;14.346;2023-04-03T20:56:21;6.38;;;3.53;;
42854;SDS011;29183;48.038;14.346;2023-04-03T20:59:02;4.05;;;2.35;;
42854;SDS011;29183;48.038;14.346;2023-04-03T21:21:24;5.10;;;2.92;;
42854;SDS011;29183;48.038;14.346;2023-04-03T21:23:55;5.22;;;3.10;;
42854;SDS011;29183;48.038;14.346;2023-04-03T21:32:39;4.38;;;2.70;;
42854;SDS011;29183;48.038;14.346;2023-04-03T21:38:09;5.78;;;3.00;;
42854;SDS011;29183;48.038;14.346;2023-04-03T21:40:41;6.10;;;3.33;;
42854;SDS011;29183;48.038;14.346;2023-04-03T21:43:14;10.13;;;3.60;;
42854;SDS011;29183;48.038;14.346;2023-04-03T21:48:44;8.00;;;3.83;;
42854;SDS011;29183;48.038;14.346;2023-04-03T21:51:28;6.55;;;3.85;;
42854;SDS011;29183;48.038;14.346;2023-04-03T21:56:50;6.18;;;4.00;;
42854;SDS011;29183;48.038;14.346;2023-04-03T21:59:18;8.50;;;4.38;;
42854;SDS011;29183;48.038;14.346;2023-04-03T22:04:19;4.28;;;3.05;;
42854;SDS011;29183;48.038;14.346;2023-04-03T22:15:03;6.57;;;3.97;;
42854;SDS011;29183;48.038;14.346;2023-04-03T22:17:43;6.43;;;3.67;;
42854;SDS011;29183;48.038;14.346;2023-04-03T22:22:51;5.05;;;3.25;;
42854;SDS011;29183;48.038;14.346;2023-04-03T22:25:32;6.35;;;3.22;;
42854;SDS011;29183;48.038;14.346;2023-04-03T22:30:45;3.53;;;3.05;;
42854;SDS011;29183;48.038;14.346;2023-04-03T22:33:18;4.55;;;3.30;;
42854;SDS011;29183;48.038;14.346;2023-04-03T22:35:48;6.93;;;3.45;;
42854;SDS011;29183;48.038;14.346;2023-04-03T22:38:22;6.07;;;2.88;;
42854;SDS011;29183;48.038;14.346;2023-04-03T22:43:33;6.15;;;3.38;;
42854;SDS011;29183;48.038;14.346;2023-04-03T22:46:18;7.88;;;3.10;;
42854;SDS011;29183;48.038;14.346;2023-04-03T22:48:47;5.78;;;2.50;;
42854;SDS011;29183;48.038;14.346;2023-04-03T22:51:22;5.50;;;2.67;;
42854;SDS011;29183;48.038;14.346;2023-04-03T22:53:50;5.63;;;2.97;;
42854;SDS011;29183;48.038;14.346;2023-04-03T22:56:29;4.25;;;2.78;;
42854;SDS011;29183;48.038;14.346;2023-04-03T22:58:58;8.30;;;3.38;;
42854;SDS011;29183;48.038;14.346;2023-04-03T23:01:40;6.38;;;2.97;;
42854;SDS011;29183;48.038;14.346;2023-04-03T23:04:18;3.95;;;2.58;;
42854;SDS011;29183;48.038;14.346;2023-04-03T23:10:06;4.60;;;2.95;;
42854;SDS011;29183;48.038;14.346;2023-04-03T23:12:38;5.38;;;3.47;;
42854;SDS011;29183;48.038;14.346;2023-04-03T23:15:07;6.22;;;3.22;;
42854;SDS011;29183;48.038;14.346;2023-04-03T23:17:36;3.55;;;2.88;;
42854;SDS011;29183;48.038;14.346;2023-04-03T23:20:06;5.55;;;3.60;;
42854;SDS011;29183;48.038;14.346;2023-04-03T23:22:35;6.00;;;3.55;;
42854;SDS011;29183;48.038;14.346;2023-04-03T23:25:04;4.78;;;3.40;;
42854;SDS011;29183;48.038;14.346;2023-04-03T23:27:48;5.82;;;3.28;;
42854;SDS011;29183;48.038;14.346;2023-04-03T23:33:04;5.00;;;3.22;;
42854;SDS011;29183;48.038;14.346;2023-04-03T23:35:44;7.15;;;3.80;;